Terminal Aerodrome Forecast
Issued by NWS Charleston, WV

Current Version | Previous Version | Text Only | Print | Product List | Glossary Off
Versions: 1 2 3 4 5 6 7 8 9 10 11 12 13 14 15 16 17 18 19 20 21 22 23

000
FTUS41 KRLX 021922 AAA
TAFPKB
TAF AMD
KPKB 021922Z 0219/0318 25004KT P6SM VCTS SCT045CB
      TEMPO 0219/0220 3SM TSRA BKN030CB
     FM030100 00000KT P6SM SCT045
     FM030900 00000KT 4SM BR SCT045
     FM031200 00000KT P6SM SCT035
     FM031600 00000KT P6SM VCTS SCT040CB=

USA.gov is the U.S. government's official web portal to all federal, state and local government web resources and services.